Impacts TAF Board
For situational awareness. Not to be used for flight planning purposes.
IDs:

KRSL - Russell Muni, KS, US

Issued at 1120 UTC 13 Dec 2019
Updated at 1350 UTC 13 Dec 2019
Potential Impact None Slight Moderate High
Time<<14/02Z 14/03Z 14/04Z 14/05Z 14/06Z 14/07Z 14/08Z 14/09Z 14/10Z 14/11Z 14/12Z 14/13Z 14/14Z>>
Type PRVL PRVL PRVL PRVL PRVL PRVL PRVL PRVL PRVL PRVL
VIS >6 >6 >6 >6 >6 >6 >6 >6 >6 >6
CIG -- -- -- -- -- -- -- -- -- --
Cover SCT SCT SCT SCT SCT SCT SCT SCT SCT SCT
FltCat VFR VFR VFR VFR VFR VFR VFR VFR VFR VFR
WX -- -- -- -- -- -- -- -- -- --
WDir 300 300 330 330 330 330 330 330 330 330
WSpd 10 10 13 13 13 13 13 13 13 13
WGst -- -- -- -- -- -- -- -- -- --
Raw TAF
KRSL 131120Z 1312/1412 24007KT P6SM FEW060
  FM131400 30010KT P6SM SCT060
  FM140400 33013KT P6SM SCT045


METAR Board
Radar Display
Forecast Discussion
For situational awareness. Not to be used for flight planning purposes.